createdAt,value
2017-09-28T00:00:22.155Z,15.67
2017-09-28T00:01:02.745Z,15.67
2017-09-28T00:01:43.332Z,15.59
2017-09-28T00:02:23.932Z,15.72
2017-09-28T00:03:04.519Z,15.7
2017-09-28T00:03:45.134Z,15.58
2017-09-28T00:04:25.704Z,15.61
2017-09-28T00:05:06.313Z,15.65
2017-09-28T00:05:46.924Z,15.7
2017-09-28T00:06:27.496Z,15.62
2017-09-28T00:07:08.079Z,15.72
2017-09-28T00:07:48.682Z,15.59
2017-09-28T00:08:29.252Z,15.61
2017-09-28T00:09:09.822Z,15.7
2017-09-28T00:09:50.400Z,15.64
2017-09-28T00:10:30.960Z,15.58
2017-09-28T00:11:11.576Z,15.58
2017-09-28T00:11:52.174Z,15.55
2017-09-28T00:12:32.763Z,15.57
2017-09-28T00:13:13.337Z,15.65
2017-09-28T00:13:53.924Z,15.67
2017-09-28T00:14:34.505Z,15.61
2017-09-28T00:15:15.130Z,15.67
2017-09-28T00:15:55.741Z,15.72
2017-09-28T00:16:36.336Z,15.76
2017-09-28T00:17:16.949Z,15.59
2017-09-28T00:17:57.516Z,15.61
2017-09-28T00:18:38.092Z,15.64
2017-09-28T00:19:18.669Z,15.61
2017-09-28T00:19:59.283Z,15.68
2017-09-28T00:20:39.911Z,15.72
2017-09-28T00:21:20.516Z,15.79
2017-09-28T00:22:01.122Z,15.61
2017-09-28T00:22:41.707Z,15.65
2017-09-28T00:23:22.312Z,15.68
2017-09-28T00:24:02.882Z,15.55
2017-09-28T00:24:43.512Z,15.59
2017-09-28T00:25:24.098Z,15.65
2017-09-28T00:26:04.718Z,15.65
2017-09-28T00:26:45.284Z,15.73
2017-09-28T00:27:25.867Z,15.61
2017-09-28T00:28:06.475Z,15.58
2017-09-28T00:28:47.076Z,15.61
2017-09-28T00:29:27.655Z,15.58
2017-09-28T00:30:08.244Z,15.58
2017-09-28T00:30:48.819Z,15.58
2017-09-28T00:31:29.444Z,15.58
2017-09-28T00:32:10.099Z,15.59
2017-09-28T00:32:50.693Z,15.58
2017-09-28T00:33:31.282Z,15.59
2017-09-28T00:34:11.907Z,15.58
2017-09-28T00:34:52.486Z,15.59
2017-09-28T00:35:33.092Z,15.59
2017-09-28T00:36:13.711Z,15.59
2017-09-28T00:36:54.283Z,15.57
2017-09-28T00:37:34.863Z,15.62
2017-09-28T00:38:15.417Z,15.61
2017-09-28T00:38:56.113Z,15.65
2017-09-28T00:39:36.697Z,15.55
2017-09-28T00:40:17.279Z,15.62
2017-09-28T00:40:57.897Z,15.52
2017-09-28T00:41:38.468Z,15.59
2017-09-28T00:42:19.064Z,15.54
2017-09-28T00:42:59.652Z,15.55
2017-09-28T00:43:40.263Z,15.59
2017-09-28T00:44:20.885Z,15.59
2017-09-28T00:45:01.531Z,15.57
2017-09-28T00:45:42.105Z,15.59
2017-09-28T00:46:22.704Z,15.57
2017-09-28T00:47:03.301Z,15.54
2017-09-28T00:47:43.892Z,15.57
2017-09-28T00:48:24.564Z,15.54
2017-09-28T00:49:05.162Z,15.57
2017-09-28T00:49:45.739Z,15.59
2017-09-28T00:50:26.321Z,15.59
2017-09-28T00:51:06.906Z,15.55
2017-09-28T00:51:47.493Z,15.59
2017-09-28T00:52:28.114Z,15.61
2017-09-28T00:53:08.698Z,15.57
2017-09-28T00:53:49.296Z,15.62
2017-09-28T00:54:29.904Z,15.57
2017-09-28T00:55:10.533Z,15.52
2017-09-28T00:55:51.133Z,15.52
2017-09-28T00:56:31.749Z,15.52
2017-09-28T00:57:12.390Z,15.58
2017-09-28T00:57:52.958Z,15.57
2017-09-28T00:58:33.517Z,15.52
2017-09-28T00:59:14.131Z,15.49
2017-09-28T00:59:54.724Z,15.55
2017-09-28T01:00:35.333Z,15.54
2017-09-28T01:01:15.928Z,15.58
2017-09-28T01:01:56.529Z,15.55
2017-09-28T01:02:37.093Z,15.51
2017-09-28T01:03:17.677Z,15.55
2017-09-28T01:03:58.263Z,15.44
2017-09-28T01:04:38.846Z,15.42
2017-09-28T01:05:19.471Z,15.42
2017-09-28T01:06:00.079Z,15.49
2017-09-28T01:06:40.685Z,15.47
2017-09-28T01:07:21.268Z,15.44
2017-09-28T01:08:01.836Z,15.47
2017-09-28T01:08:42.423Z,15.49
2017-09-28T01:09:23.069Z,15.43
2017-09-28T01:10:03.641Z,15.46
2017-09-28T01:10:44.252Z,15.46
2017-09-28T01:11:24.847Z,15.43
2017-09-28T01:12:05.423Z,15.37
2017-09-28T01:12:45.995Z,15.37
2017-09-28T01:13:26.583Z,15.31
2017-09-28T01:14:07.210Z,15.35
2017-09-28T01:14:47.790Z,15.31
2017-09-28T01:15:28.405Z,15.44
2017-09-28T01:16:09.007Z,15.29
2017-09-28T01:16:49.606Z,15.29
2017-09-28T01:17:30.214Z,15.42
2017-09-28T01:18:10.791Z,15.35
2017-09-28T01:18:51.411Z,15.39
2017-09-28T01:19:32.013Z,15.33
2017-09-28T01:20:12.631Z,15.36
2017-09-28T01:20:53.239Z,15.4
2017-09-28T01:21:33.812Z,15.35
2017-09-28T01:22:14.439Z,15.36
2017-09-28T01:22:55.030Z,15.37
2017-09-28T01:23:35.598Z,15.37
2017-09-28T01:24:16.200Z,15.35
2017-09-28T01:24:56.833Z,15.36
2017-09-28T01:25:37.445Z,15.35
2017-09-28T01:26:18.034Z,15.31
2017-09-28T01:26:58.621Z,15.35
2017-09-28T01:27:39.200Z,15.44
2017-09-28T01:28:19.789Z,15.43
2017-09-28T01:29:00.360Z,15.37
2017-09-28T01:29:40.934Z,15.35
2017-09-28T01:30:21.503Z,15.44
2017-09-28T01:31:02.098Z,15.35
2017-09-28T01:31:42.664Z,15.46
2017-09-28T01:32:23.312Z,15.42
2017-09-28T01:33:03.915Z,15.33
2017-09-28T01:33:44.488Z,15.39
2017-09-28T01:34:25.070Z,15.37
2017-09-28T01:35:05.643Z,15.37
2017-09-28T01:35:46.211Z,15.42
2017-09-28T01:36:26.807Z,15.31
2017-09-28T01:37:07.411Z,15.35
2017-09-28T01:37:47.982Z,15.36
2017-09-28T01:38:28.568Z,15.33
2017-09-28T01:39:09.153Z,15.39
2017-09-28T01:39:49.764Z,15.39
2017-09-28T01:40:30.328Z,15.36
2017-09-28T01:41:10.911Z,15.39
2017-09-28T01:41:51.499Z,15.39
2017-09-28T01:42:32.076Z,15.39
2017-09-28T01:43:12.678Z,15.39
2017-09-28T01:43:53.288Z,15.37
2017-09-28T01:44:33.875Z,15.35
2017-09-28T01:45:14.481Z,15.39
2017-09-28T01:45:55.042Z,15.37
2017-09-28T01:46:35.634Z,15.4
2017-09-28T01:47:16.253Z,15.33
2017-09-28T01:47:56.850Z,15.36
2017-09-28T01:48:37.443Z,15.36
2017-09-28T01:49:18.026Z,15.35
2017-09-28T01:49:58.637Z,15.39
2017-09-28T01:50:39.231Z,15.24
2017-09-28T01:51:19.825Z,15.36
2017-09-28T01:52:00.427Z,15.29
2017-09-28T01:52:41.016Z,15.27
2017-09-28T01:53:21.601Z,15.27
2017-09-28T01:54:02.223Z,15.25
2017-09-28T01:54:42.825Z,15.29
2017-09-28T01:55:23.418Z,15.25
2017-09-28T01:56:04.068Z,15.29
2017-09-28T01:56:44.869Z,15.31
2017-09-28T01:57:25.524Z,15.25
2017-09-28T01:58:06.160Z,15.39
2017-09-28T01:58:46.761Z,15.28
2017-09-28T01:59:27.351Z,15.29
2017-09-28T02:00:08.416Z,15.29
2017-09-28T02:00:49.094Z,15.4
2017-09-28T02:01:29.715Z,15.35
2017-09-28T02:02:10.372Z,15.27
2017-09-28T02:02:50.976Z,15.25
2017-09-28T02:03:31.613Z,15.31
2017-09-28T02:04:12.208Z,15.33
2017-09-28T02:04:52.789Z,15.35
2017-09-28T02:05:33.390Z,15.29
2017-09-28T02:06:13.989Z,15.36
2017-09-28T02:06:54.636Z,15.31
2017-09-28T02:07:35.192Z,15.33
2017-09-28T02:08:15.906Z,15.22
2017-09-28T02:08:56.502Z,15.24
2017-09-28T02:09:37.229Z,15.29
2017-09-28T02:10:17.894Z,15.31
2017-09-28T02:10:58.502Z,15.25
2017-09-28T02:11:39.137Z,15.28
2017-09-28T02:12:19.951Z,15.29
2017-09-28T02:13:00.479Z,15.19
2017-09-28T02:13:41.072Z,15.22
2017-09-28T02:14:21.652Z,15.27
2017-09-28T02:15:02.279Z,15.25
2017-09-28T02:15:42.909Z,15.33
2017-09-28T02:16:23.494Z,15.29
2017-09-28T02:17:04.062Z,15.25
2017-09-28T02:17:44.665Z,15.33
2017-09-28T02:18:25.259Z,15.27
2017-09-28T02:19:05.890Z,15.27
2017-09-28T02:19:46.504Z,15.22
2017-09-28T02:20:27.091Z,15.31
2017-09-28T02:21:07.704Z,15.28
2017-09-28T02:21:48.297Z,15.14
2017-09-28T02:22:28.913Z,15.15
2017-09-28T02:23:09.502Z,15.28
2017-09-28T02:23:50.089Z,15.22
2017-09-28T02:24:30.674Z,15.19
2017-09-28T02:25:11.280Z,15.18
2017-09-28T02:25:51.865Z,15.18
2017-09-28T02:26:32.491Z,15.24
2017-09-28T02:27:13.140Z,15.19
2017-09-28T02:27:53.712Z,15.24
2017-09-28T02:28:34.288Z,15.25
2017-09-28T02:29:14.904Z,15.17
2017-09-28T02:29:55.497Z,15.21
2017-09-28T02:30:36.100Z,15.09
2017-09-28T02:31:16.734Z,15.17
2017-09-28T02:31:57.360Z,15.25
2017-09-28T02:32:38.023Z,15.14
2017-09-28T02:33:18.610Z,15.18
2017-09-28T02:33:59.249Z,15.1
2017-09-28T02:34:39.824Z,15.09
2017-09-28T02:35:20.403Z,15.1
2017-09-28T02:36:01.016Z,15.1
2017-09-28T02:36:41.623Z,15.1
2017-09-28T02:37:22.208Z,15.1
2017-09-28T02:38:02.804Z,15.15
2017-09-28T02:38:43.390Z,15.11
2017-09-28T02:39:23.977Z,15.1
2017-09-28T02:40:04.587Z,15.09
2017-09-28T02:40:45.196Z,15.11
2017-09-28T02:41:25.779Z,15.14
2017-09-28T02:42:06.406Z,15.1
2017-09-28T02:42:46.999Z,15.07
2017-09-28T02:43:27.616Z,15.11
2017-09-28T02:44:08.223Z,15.18
2017-09-28T02:44:48.793Z,15.14
2017-09-28T02:45:29.389Z,15.11
2017-09-28T02:46:10.021Z,15.11
2017-09-28T02:46:50.617Z,15.1
2017-09-28T02:47:31.165Z,15.09
2017-09-28T02:48:11.745Z,15.09
2017-09-28T02:48:52.374Z,15.14
2017-09-28T02:49:32.953Z,15.15
2017-09-28T02:50:13.540Z,15.07
2017-09-28T02:50:54.114Z,15.11
2017-09-28T02:51:34.726Z,15.09
2017-09-28T02:52:15.295Z,15.09
2017-09-28T02:52:55.915Z,15.1
2017-09-28T02:53:36.509Z,15.06
2017-09-28T02:54:17.115Z,15.07
2017-09-28T02:54:57.682Z,15.04
2017-09-28T02:55:38.303Z,15.04
2017-09-28T02:56:18.907Z,15.06
2017-09-28T02:56:59.489Z,14.96
2017-09-28T02:57:40.064Z,15
2017-09-28T02:58:20.667Z,15.02
2017-09-28T02:59:01.245Z,14.94
2017-09-28T02:59:41.815Z,15
2017-09-28T03:00:22.396Z,14.99
2017-09-28T03:01:02.964Z,15.02
2017-09-28T03:01:43.548Z,14.96
2017-09-28T03:02:24.117Z,15
2017-09-28T03:03:04.701Z,15.02
2017-09-28T03:03:45.279Z,15.09
2017-09-28T03:04:25.891Z,14.99
2017-09-28T03:05:06.468Z,14.97
2017-09-28T03:05:47.064Z,15
2017-09-28T03:06:27.623Z,15.03
2017-09-28T03:07:08.195Z,15.03
2017-09-28T03:07:48.812Z,15
2017-09-28T03:08:29.398Z,14.94
2017-09-28T03:09:10.024Z,14.99
2017-09-28T03:09:50.619Z,14.94
2017-09-28T03:10:31.183Z,14.97
2017-09-28T03:11:11.746Z,14.97
2017-09-28T03:11:52.325Z,14.94
2017-09-28T03:12:32.919Z,15
2017-09-28T03:13:13.550Z,15.02
2017-09-28T03:13:54.127Z,14.96
2017-09-28T03:14:34.699Z,15.02
2017-09-28T03:15:15.344Z,14.92
2017-09-28T03:15:55.928Z,14.92
2017-09-28T03:16:36.509Z,14.89
2017-09-28T03:17:17.098Z,14.89
2017-09-28T03:17:57.720Z,14.91
2017-09-28T03:18:38.329Z,14.89
2017-09-28T03:19:18.922Z,14.89
2017-09-28T03:19:59.575Z,14.88
2017-09-28T03:20:40.159Z,14.91
2017-09-28T03:21:20.732Z,14.92
2017-09-28T03:22:01.302Z,14.91
2017-09-28T03:22:41.864Z,14.88
2017-09-28T03:23:22.446Z,14.79
2017-09-28T03:24:03.010Z,14.81
2017-09-28T03:24:43.646Z,14.79
2017-09-28T03:25:24.216Z,14.81
2017-09-28T03:26:04.816Z,14.85
2017-09-28T03:26:45.379Z,14.85
2017-09-28T03:27:25.954Z,14.72
2017-09-28T03:28:06.525Z,14.7
2017-09-28T03:28:47.137Z,14.65
2017-09-28T03:29:27.703Z,14.69
2017-09-28T03:30:08.270Z,14.7
2017-09-28T03:30:48.851Z,14.69
2017-09-28T03:31:29.417Z,14.68
2017-09-28T03:32:10.009Z,14.7
2017-09-28T03:32:50.607Z,14.72
2017-09-28T03:33:31.219Z,14.66
2017-09-28T03:34:11.793Z,14.7
2017-09-28T03:34:52.408Z,14.66
2017-09-28T03:35:32.974Z,14.66
2017-09-28T03:36:13.613Z,14.66
2017-09-28T03:36:54.186Z,14.77
2017-09-28T03:37:34.787Z,14.72
2017-09-28T03:38:15.372Z,14.7
2017-09-28T03:38:55.957Z,14.69
2017-09-28T03:39:36.569Z,14.65
2017-09-28T03:40:17.159Z,14.72
2017-09-28T03:40:57.766Z,14.62
2017-09-28T03:41:38.334Z,14.63
2017-09-28T03:42:18.911Z,14.59
2017-09-28T03:42:59.494Z,14.62
2017-09-28T03:43:40.094Z,14.6
2017-09-28T03:44:20.676Z,14.6
2017-09-28T03:45:01.289Z,14.6
2017-09-28T03:45:41.876Z,14.59
2017-09-28T03:46:22.476Z,14.55
2017-09-28T03:47:03.045Z,14.6
2017-09-28T03:47:43.627Z,14.65
2017-09-28T03:48:24.251Z,14.59
2017-09-28T03:49:04.824Z,14.6
2017-09-28T03:49:45.455Z,14.58
2017-09-28T03:50:26.058Z,14.53
2017-09-28T03:51:06.682Z,14.53
2017-09-28T03:51:47.229Z,14.59
2017-09-28T03:52:27.801Z,14.53
2017-09-28T03:53:08.403Z,14.54
2017-09-28T03:53:49.008Z,14.48
2017-09-28T03:54:29.540Z,14.51
2017-09-28T03:55:10.101Z,14.55
2017-09-28T03:55:50.678Z,14.48
2017-09-28T03:56:31.252Z,14.58
2017-09-28T03:57:11.828Z,14.54
2017-09-28T03:57:52.396Z,14.54
2017-09-28T03:58:32.967Z,14.51
2017-09-28T03:59:13.539Z,14.5
2017-09-28T03:59:54.117Z,14.65
2017-09-28T04:00:34.742Z,14.54
2017-09-28T04:01:15.313Z,14.58
2017-09-28T04:01:55.904Z,14.54
2017-09-28T04:02:36.511Z,14.63
2017-09-28T04:03:17.092Z,14.62
2017-09-28T04:03:57.687Z,14.53
2017-09-28T04:04:38.276Z,14.48
2017-09-28T04:05:18.874Z,14.5
2017-09-28T04:05:59.480Z,14.6
2017-09-28T04:06:40.066Z,14.5
2017-09-28T04:07:20.641Z,14.5
2017-09-28T04:08:01.228Z,14.53
2017-09-28T04:08:41.806Z,14.45
2017-09-28T04:09:22.394Z,14.59
2017-09-28T04:10:02.954Z,14.43
2017-09-28T04:10:43.514Z,14.53
2017-09-28T04:11:24.076Z,14.45
2017-09-28T04:12:04.642Z,14.53
2017-09-28T04:12:45.201Z,14.47
2017-09-28T04:13:25.791Z,14.47
2017-09-28T04:14:06.408Z,14.36
2017-09-28T04:14:47.013Z,14.36
2017-09-28T04:15:27.624Z,14.36
2017-09-28T04:16:08.748Z,14.41
2017-09-28T04:16:49.347Z,14.45
2017-09-28T04:17:29.965Z,14.41
2017-09-28T04:18:10.562Z,14.37
2017-09-28T04:18:51.148Z,14.45
2017-09-28T04:19:31.734Z,14.44
2017-09-28T04:20:12.316Z,14.37
2017-09-28T04:20:52.947Z,14.35
2017-09-28T04:21:33.529Z,14.41
2017-09-28T04:22:14.111Z,14.36
2017-09-28T04:22:54.694Z,14.37
2017-09-28T04:23:35.273Z,14.44
2017-09-28T04:24:15.896Z,14.36
2017-09-28T04:24:56.474Z,14.37
2017-09-28T04:25:37.091Z,14.33
2017-09-28T04:26:17.711Z,14.44
2017-09-28T04:26:58.338Z,14.33
2017-09-28T04:27:38.980Z,14.36
2017-09-28T04:28:19.596Z,14.36
2017-09-28T04:29:00.203Z,14.32
2017-09-28T04:29:40.805Z,14.37
2017-09-28T04:30:21.401Z,14.32
2017-09-28T04:31:02.017Z,14.36
2017-09-28T04:31:42.609Z,14.33
2017-09-28T04:32:23.180Z,14.3
2017-09-28T04:33:03.767Z,14.36
2017-09-28T04:33:44.391Z,14.37
2017-09-28T04:34:24.983Z,14.35
2017-09-28T04:35:05.591Z,14.33
2017-09-28T04:35:46.226Z,14.32
2017-09-28T04:36:26.833Z,14.32
2017-09-28T04:37:07.428Z,14.33
2017-09-28T04:37:48.021Z,14.29
2017-09-28T04:38:28.629Z,14.33
2017-09-28T04:39:09.231Z,14.32
2017-09-28T04:39:49.856Z,14.22
2017-09-28T04:40:30.438Z,14.3
2017-09-28T04:41:11.024Z,14.28
2017-09-28T04:41:51.611Z,14.25
2017-09-28T04:42:32.205Z,14.25
2017-09-28T04:43:12.777Z,14.2
2017-09-28T04:43:53.400Z,14.14
2017-09-28T04:44:33.991Z,14.18
2017-09-28T04:45:14.568Z,14.18
2017-09-28T04:45:55.173Z,14.1
2017-09-28T04:46:35.746Z,14.11
2017-09-28T04:47:16.328Z,14.14
2017-09-28T04:47:56.915Z,14.05
2017-09-28T04:48:37.586Z,14.23
2017-09-28T04:49:18.182Z,14.12
2017-09-28T04:49:58.774Z,14.14
2017-09-28T04:50:39.367Z,14.15
2017-09-28T04:51:19.937Z,14.11
2017-09-28T04:52:00.542Z,14.12
2017-09-28T04:52:41.112Z,14.12
2017-09-28T04:53:21.713Z,14.08
2017-09-28T04:54:02.335Z,14.11
2017-09-28T04:54:42.925Z,14.14
2017-09-28T04:55:23.524Z,14.11
2017-09-28T04:56:04.111Z,14.14
2017-09-28T04:56:44.688Z,14.17
2017-09-28T04:57:25.280Z,14.22
2017-09-28T04:58:05.860Z,14.25
2017-09-28T04:58:46.458Z,14.25
2017-09-28T04:59:27.081Z,14.18
2017-09-28T05:00:07.661Z,14.12
2017-09-28T05:00:48.244Z,14.14
2017-09-28T05:01:28.851Z,14.15
2017-09-28T05:02:09.433Z,14.12
2017-09-28T05:02:50.055Z,14.11
2017-09-28T05:03:30.734Z,14.08
2017-09-28T05:04:11.326Z,14.08
2017-09-28T05:04:51.916Z,14.11
2017-09-28T05:05:32.503Z,14.15
2017-09-28T05:06:13.101Z,14.14
2017-09-28T05:06:53.707Z,14.14
2017-09-28T05:07:34.281Z,14.12
2017-09-28T05:08:14.866Z,14.18
2017-09-28T05:08:55.458Z,14.17
2017-09-28T05:09:36.068Z,14.12
2017-09-28T05:10:16.647Z,14.14
2017-09-28T05:10:57.285Z,14.11
2017-09-28T05:11:37.874Z,14.11
2017-09-28T05:12:18.467Z,14.11
2017-09-28T05:12:59.071Z,14.12
2017-09-28T05:13:39.664Z,14.1
2017-09-28T05:14:20.257Z,14.11
2017-09-28T05:15:00.836Z,14.12
2017-09-28T05:15:41.425Z,14.12
2017-09-28T05:16:22.045Z,14.12
2017-09-28T05:17:02.625Z,14.08
2017-09-28T05:17:43.243Z,14.11
2017-09-28T05:18:23.807Z,14.17
2017-09-28T05:19:04.397Z,14.14
2017-09-28T05:19:44.955Z,14.17
2017-09-28T05:20:25.553Z,14.08
2017-09-28T05:21:06.124Z,14.12
2017-09-28T05:21:46.705Z,14.15
2017-09-28T05:22:27.329Z,14.07
2017-09-28T05:23:07.917Z,14.04
2017-09-28T05:23:48.484Z,14.15
2017-09-28T05:24:29.093Z,14.07
2017-09-28T05:25:09.724Z,14.17
2017-09-28T05:25:51.048Z,14.11
2017-09-28T05:26:31.753Z,14.15
2017-09-28T05:27:12.388Z,14.12
2017-09-28T05:27:53.016Z,14.1
2017-09-28T05:28:33.607Z,14.1
2017-09-28T05:29:14.184Z,14.12
2017-09-28T05:29:54.766Z,14.18
2017-09-28T05:30:35.360Z,14.17
2017-09-28T05:31:15.947Z,14.18
2017-09-28T05:31:56.534Z,14.26
2017-09-28T05:32:37.203Z,14.3
2017-09-28T05:33:17.786Z,14.35
2017-09-28T05:33:58.413Z,14.35
2017-09-28T05:34:39.433Z,14.37
2017-09-28T05:35:19.939Z,14.55
2017-09-28T05:36:00.543Z,14.54
2017-09-28T05:36:41.135Z,14.5
2017-09-28T05:37:21.727Z,14.5
2017-09-28T05:38:02.308Z,14.54
2017-09-28T05:38:42.943Z,14.58
2017-09-28T05:39:23.540Z,14.58
2017-09-28T05:40:04.128Z,14.7
2017-09-28T05:40:44.707Z,14.63
2017-09-28T05:41:25.314Z,14.63
2017-09-28T05:42:05.928Z,14.65
2017-09-28T05:42:46.536Z,14.7
2017-09-28T05:43:27.111Z,14.65
2017-09-28T05:44:07.727Z,14.65
2017-09-28T05:44:48.340Z,14.66
2017-09-28T05:45:28.938Z,14.68
2017-09-28T05:46:09.550Z,14.72
2017-09-28T05:46:50.130Z,14.66
2017-09-28T05:47:30.717Z,14.68
2017-09-28T05:48:11.315Z,14.78
2017-09-28T05:48:51.925Z,14.81
2017-09-28T05:49:32.635Z,14.79
2017-09-28T05:50:13.256Z,14.84
2017-09-28T05:50:54.593Z,14.88
2017-09-28T05:51:35.665Z,14.85
2017-09-28T05:52:16.788Z,14.99
2017-09-28T05:52:57.367Z,14.96
2017-09-28T05:53:38.032Z,15.03
2017-09-28T05:54:18.825Z,14.91
2017-09-28T05:54:59.871Z,15.02
2017-09-28T05:55:40.757Z,14.88
2017-09-28T05:56:22.250Z,14.86
2017-09-28T05:57:02.847Z,14.79
2017-09-28T05:57:43.440Z,14.86
2017-09-28T05:58:24.402Z,14.85
2017-09-28T05:59:05.215Z,14.86
2017-09-28T05:59:46.040Z,14.81
2017-09-28T06:00:27.233Z,14.78
2017-09-28T06:01:07.880Z,14.79
2017-09-28T06:01:48.526Z,14.81
2017-09-28T06:02:29.121Z,14.72
2017-09-28T06:03:09.715Z,14.78
2017-09-28T06:03:50.298Z,14.77
2017-09-28T06:04:30.889Z,14.7
2017-09-28T06:05:11.474Z,14.62
2017-09-28T06:05:52.069Z,14.7
2017-09-28T06:06:32.650Z,14.68
2017-09-28T06:07:13.258Z,14.66
2017-09-28T06:07:53.834Z,14.65
2017-09-28T06:08:34.395Z,14.63
2017-09-28T06:09:14.979Z,14.59
2017-09-28T06:09:55.561Z,14.62
2017-09-28T06:10:36.146Z,14.54
2017-09-28T06:11:16.744Z,14.45
2017-09-28T06:11:57.315Z,14.53
2017-09-28T06:12:37.901Z,14.48
2017-09-28T06:13:18.495Z,14.4
2017-09-28T06:13:59.072Z,14.41
2017-09-28T06:14:39.654Z,14.37
2017-09-28T06:15:20.248Z,14.37
2017-09-28T06:16:00.837Z,14.43
2017-09-28T06:16:41.417Z,14.41
2017-09-28T06:17:22.003Z,14.35
2017-09-28T06:18:02.595Z,14.28
2017-09-28T06:18:43.161Z,14.32
2017-09-28T06:19:23.752Z,14.29
2017-09-28T06:20:04.333Z,14.3
2017-09-28T06:20:44.943Z,14.25
2017-09-28T06:21:25.513Z,14.32
2017-09-28T06:22:06.113Z,14.23
2017-09-28T06:22:46.708Z,14.36
2017-09-28T06:23:27.307Z,14.3
2017-09-28T06:24:07.902Z,14.2
2017-09-28T06:24:48.505Z,14.3
2017-09-28T06:25:29.088Z,14.2
2017-09-28T06:26:10.115Z,14.33
2017-09-28T06:26:50.696Z,14.26
2017-09-28T06:27:31.325Z,14.37
2017-09-28T06:28:12.040Z,14.23
2017-09-28T06:28:52.639Z,14.26
2017-09-28T06:29:33.236Z,14.28
2017-09-28T06:30:13.852Z,14.33
2017-09-28T06:30:54.514Z,14.28
2017-09-28T06:31:35.128Z,14.28
2017-09-28T06:32:15.720Z,14.3
2017-09-28T06:32:56.511Z,14.29
2017-09-28T06:33:37.121Z,14.3
2017-09-28T06:34:17.721Z,14.32
2017-09-28T06:34:58.327Z,14.2
2017-09-28T06:35:38.910Z,14.28
2017-09-28T06:36:19.500Z,14.23
2017-09-28T06:37:00.094Z,14.25
2017-09-28T06:37:40.671Z,14.28
2017-09-28T06:38:21.269Z,14.32
2017-09-28T06:39:01.895Z,14.22
2017-09-28T06:39:42.528Z,14.2
2017-09-28T06:40:23.134Z,14.22
2017-09-28T06:41:03.742Z,14.17
2017-09-28T06:41:44.325Z,14.18
2017-09-28T06:42:24.929Z,14.17
2017-09-28T06:43:05.551Z,14.11
2017-09-28T06:43:46.143Z,14.1
2017-09-28T06:44:26.755Z,14.14
2017-09-28T06:45:07.338Z,14.17
2017-09-28T06:45:47.961Z,14.11
2017-09-28T06:46:28.555Z,14.14
2017-09-28T06:47:09.501Z,14.11
2017-09-28T06:47:50.085Z,14.15
2017-09-28T06:48:30.746Z,14.17
2017-09-28T06:49:11.330Z,14.17
2017-09-28T06:49:52.014Z,14.14
2017-09-28T06:50:32.594Z,14.2
2017-09-28T06:51:13.186Z,14.15
2017-09-28T06:51:53.762Z,14.22
2017-09-28T06:52:34.330Z,14.17
2017-09-28T06:53:14.945Z,14.17
2017-09-28T06:53:55.514Z,14.2
2017-09-28T06:54:36.090Z,14.22
2017-09-28T06:55:16.702Z,14.2
2017-09-28T06:55:57.330Z,14.2
2017-09-28T06:56:37.906Z,14.22
2017-09-28T06:57:18.507Z,14.2
2017-09-28T06:57:59.212Z,14.25
2017-09-28T06:58:40.101Z,14.23
2017-09-28T06:59:20.691Z,14.22
2017-09-28T07:00:01.292Z,14.23
2017-09-28T07:00:42.082Z,14.28
2017-09-28T07:01:22.990Z,14.25
2017-09-28T07:02:03.678Z,14.26
2017-09-28T07:02:44.419Z,14.28
2017-09-28T07:03:25.353Z,14.25
2017-09-28T07:04:06.872Z,14.29
2017-09-28T07:04:48.428Z,14.36
2017-09-28T07:05:29.069Z,14.29
2017-09-28T07:06:09.855Z,14.32
2017-09-28T07:06:50.540Z,14.33
2017-09-28T07:07:31.354Z,14.35
2017-09-28T07:08:12.025Z,14.4
2017-09-28T07:08:52.710Z,14.35
2017-09-28T07:09:33.258Z,14.37
2017-09-28T07:10:13.956Z,14.41
2017-09-28T07:10:54.559Z,14.37
2017-09-28T07:11:35.224Z,14.48
2017-09-28T07:12:15.928Z,14.53
2017-09-28T07:12:56.618Z,14.51
2017-09-28T07:13:37.587Z,14.53
2017-09-28T07:14:18.187Z,14.5
2017-09-28T07:14:58.790Z,14.59
2017-09-28T07:15:39.427Z,14.65
2017-09-28T07:16:20.048Z,14.66
2017-09-28T07:17:00.800Z,14.73
2017-09-28T07:17:41.392Z,14.81
2017-09-28T07:18:21.980Z,14.89
2017-09-28T07:19:02.590Z,14.94
2017-09-28T07:19:43.169Z,15.11
2017-09-28T07:20:23.827Z,15.29
2017-09-28T07:21:04.408Z,15.29
2017-09-28T07:21:45.035Z,15.49
2017-09-28T07:22:25.609Z,15.58
2017-09-28T07:23:06.279Z,15.83
2017-09-28T07:23:46.905Z,15.92
2017-09-28T07:24:27.618Z,16.1
2017-09-28T07:25:08.305Z,16.29
2017-09-28T07:25:48.934Z,16.42
2017-09-28T07:26:29.532Z,16.6
2017-09-28T07:27:10.120Z,16.65
2017-09-28T07:27:50.712Z,16.81
2017-09-28T07:28:31.297Z,16.96
2017-09-28T07:29:11.911Z,17.12
2017-09-28T07:29:52.565Z,17.23
2017-09-28T07:30:33.352Z,17.42
2017-09-28T07:31:13.971Z,17.42
2017-09-28T07:31:54.581Z,17.48
2017-09-28T07:32:35.217Z,17.59
2017-09-28T07:33:15.894Z,17.63
2017-09-28T07:33:56.565Z,17.87
2017-09-28T07:34:37.300Z,17.86
2017-09-28T07:35:17.942Z,18.03
2017-09-28T07:35:58.588Z,18.18
2017-09-28T07:36:39.240Z,18.16
2017-09-28T07:37:19.845Z,18.23
2017-09-28T07:38:00.420Z,18.31
2017-09-28T07:38:41.041Z,18.47
2017-09-28T07:39:21.620Z,18.52
2017-09-28T07:40:02.269Z,18.56
2017-09-28T07:40:42.847Z,18.6
2017-09-28T07:41:23.458Z,18.53
2017-09-28T07:42:04.103Z,18.59
2017-09-28T07:42:44.720Z,18.68
2017-09-28T07:43:25.371Z,18.71
2017-09-28T07:44:06.145Z,18.75
2017-09-28T07:44:46.915Z,18.74
2017-09-28T07:45:27.449Z,18.88
2017-09-28T07:46:08.089Z,19.02
2017-09-28T07:46:48.688Z,19.02
2017-09-28T07:47:29.374Z,19.11
2017-09-28T07:48:10.007Z,19.29
2017-09-28T07:48:50.575Z,19.44
2017-09-28T07:49:31.158Z,19.45
2017-09-28T07:50:11.858Z,19.66
2017-09-28T07:50:52.450Z,19.58
2017-09-28T07:51:33.119Z,19.64
2017-09-28T07:52:13.843Z,19.63
2017-09-28T07:52:54.460Z,19.73
2017-09-28T07:53:35.056Z,19.66
2017-09-28T07:54:15.806Z,19.73
2017-09-28T07:54:56.419Z,19.82
2017-09-28T07:55:37.045Z,19.74
2017-09-28T07:56:17.690Z,19.73
2017-09-28T07:56:58.280Z,19.88
2017-09-28T07:57:38.878Z,19.89
2017-09-28T07:58:19.479Z,20.03
2017-09-28T07:59:00.076Z,20.11
2017-09-28T07:59:40.687Z,20.22
2017-09-28T08:00:21.382Z,20.28
2017-09-28T08:01:01.979Z,20.28
2017-09-28T08:01:42.574Z,20.43
2017-09-28T08:02:23.136Z,20.47
2017-09-28T08:03:03.737Z,20.58
2017-09-28T08:03:44.347Z,20.55
2017-09-28T08:04:24.992Z,20.62
2017-09-28T08:05:05.653Z,20.44
2017-09-28T08:05:46.207Z,20.4
2017-09-28T08:06:26.844Z,20.39
2017-09-28T08:07:07.450Z,20.4
2017-09-28T08:07:48.045Z,20.4
2017-09-28T08:08:28.665Z,20.58
2017-09-28T08:09:09.252Z,20.6
2017-09-28T08:09:49.918Z,20.59
2017-09-28T08:10:30.473Z,20.65
2017-09-28T08:11:11.053Z,20.66
2017-09-28T08:11:51.710Z,20.6
2017-09-28T08:12:32.295Z,20.62
2017-09-28T08:13:12.951Z,20.63
2017-09-28T08:13:53.580Z,20.56
2017-09-28T08:14:34.176Z,20.58
2017-09-28T08:15:14.802Z,20.56
2017-09-28T08:15:55.423Z,20.37
2017-09-28T08:16:36.065Z,20.41
2017-09-28T08:17:16.635Z,20.34
2017-09-28T08:17:57.216Z,20.25
2017-09-28T08:18:37.869Z,20.19
2017-09-28T08:19:18.554Z,20
2017-09-28T08:19:59.134Z,20.03
2017-09-28T08:20:39.763Z,19.96
2017-09-28T08:21:20.376Z,19.88
2017-09-28T08:22:00.975Z,19.76
2017-09-28T08:22:41.568Z,19.76
2017-09-28T08:23:22.182Z,19.82
2017-09-28T08:24:02.763Z,19.7
2017-09-28T08:24:43.426Z,19.63
2017-09-28T08:25:23.971Z,19.58
2017-09-28T08:26:04.629Z,19.56
2017-09-28T08:26:45.255Z,19.64
2017-09-28T08:27:25.859Z,19.51
2017-09-28T08:28:06.424Z,19.47
2017-09-28T08:28:47.004Z,19.47
2017-09-28T08:29:27.585Z,19.55
2017-09-28T08:30:08.162Z,19.51
2017-09-28T08:30:48.772Z,19.52
2017-09-28T08:31:29.399Z,19.56
2017-09-28T08:32:10.089Z,19.51
2017-09-28T08:32:50.701Z,19.52
2017-09-28T08:33:31.292Z,19.39
2017-09-28T08:34:11.902Z,19.37
2017-09-28T08:34:52.502Z,19.41
2017-09-28T08:35:33.110Z,19.37
2017-09-28T08:36:13.711Z,19.36
2017-09-28T08:36:54.360Z,19.37
2017-09-28T08:37:34.987Z,19.37
2017-09-28T08:38:15.613Z,19.29
2017-09-28T08:38:56.224Z,19.26
2017-09-28T08:39:36.808Z,19.22
2017-09-28T08:40:17.417Z,19.12
2017-09-28T08:40:58.036Z,19.14
2017-09-28T08:41:38.611Z,19.14
2017-09-28T08:42:19.208Z,19.18
2017-09-28T08:42:59.806Z,19.07
2017-09-28T08:43:40.412Z,19.15
2017-09-28T08:44:20.995Z,19.04
2017-09-28T08:45:01.588Z,19.07